KCHK/CHK METAR and TAF weather

Enter ICAO airport designator
Station Type Date Time Source
KCHK METAR 2018/01/22 19:15 UTC NOAA

KCHK 221915Z AUTO 30023G34KT 10SM SCT060 SCT070 10/M04 A2990 RMK AO2 T01021044


Station Type Date Time Source
KCHK Decoded METAR 2018/01/22 19:15 UTC NOAA

Chickasha, Chickasha Municipal Airport, OK, United States (KCHK) 35-05-46N 097-57-58W
Jan 22, 2018 - 02:15 PM EST / 2018.01.22 1915 UTC
Wind: from the WNW (300 degrees) at 26 MPH (23 KT) gusting to 39 MPH (34 KT):0
Visibility: 10 mile(s):0
Sky conditions: partly cloudy
Temperature: 50.4 F (10.2 C)
Dew Point: 24.1 F (-4.4 C)
Relative Humidity: 35%
Pressure (altimeter): 29.9 in. Hg (1012 hPa)
ob: KCHK 221915Z AUTO 30023G34KT 10SM SCT060 SCT070 10/M04 A2990 RMK AO2 T01021044
cycle: 19

Station Type Date Time Source
KCHK TAF UTC NOAA

Error!


Example: see airport list